Aviation Digital Data Service (ADDS)

Output produced by METARs form (1410 UTC 25 July 2016)
found at http://aviationweather.gov/adds/metars/
 
KHKY 251124Z 2512/2612 00000KT 5SM BR FEW250 
     TEMPO 2512/2513 6SM BR 
     FM251300 20006KT P6SM SCT060 SCT150 
     FM260000 26005KT P6SM SCT060 
     FM260200 19003KT P6SM SCT080